Time;durP1;ratioP1;P1;durP2;ratioP2;P2;SDS_P1;SDS_P2;PMS_P1;PMS_P2;Temp;Humidity;BMP_temperature;BMP_pressure;BME280_temperature;BME280_humidity;BME280_pressure;Samples;Min_cycle;Max_cycle;Signal;HPM_P1;HPM_P2
2023/01/20 00:01:26;;;;;;;1.95;1.20;;;;;;;6.98;100.00;93720.81;4993294;28;20645;-74
2023/01/20 00:03:53;;;;;;;1.77;1.40;;;;;;;7.14;100.00;93741.44;4995925;28;20260;-73
2023/01/20 00:06:20;;;;;;;2.83;1.30;;;;;;;7.39;100.00;93746.97;5004469;28;20319;-73
2023/01/20 00:08:50;;;;;;;2.40;1.25;;;;;;;7.31;100.00;93734.34;5007136;28;20264;-73
2023/01/20 00:11:18;;;;;;;2.70;1.52;;;;;;;7.42;100.00;93739.03;5004506;28;20613;-74
2023/01/20 00:13:44;;;;;;;2.60;1.45;;;;;;;7.36;100.00;93747.66;5003754;28;20201;-74
2023/01/20 00:16:13;;;;;;;2.58;1.20;;;;;;;7.52;100.00;93759.38;4997557;28;20742;-73
2023/01/20 00:18:40;;;;;;;2.95;1.33;;;;;;;7.09;100.00;93695.88;4998007;28;20283;-74
2023/01/20 00:21:09;;;;;;;2.03;1.38;;;;;;;7.00;100.00;93643.97;5009986;28;20235;-74
2023/01/20 00:23:36;;;;;;;4.53;2.33;;;;;;;6.89;100.00;93556.66;4997476;28;20618;-73
2023/01/20 00:26:06;;;;;;;4.18;1.80;;;;;;;6.84;100.00;93548.78;4997349;28;20228;-72
2023/01/20 00:28:33;;;;;;;2.05;0.65;;;;;;;6.91;100.00;93565.22;5010839;28;20244;-74
2023/01/20 00:31:12;;;;;;;0.77;0.55;;;;;;;6.94;100.00;93559.16;5010736;28;20216;-75
2023/01/20 00:33:40;;;;;;;0.85;0.85;;;;;;;6.94;100.00;93553.00;5010074;28;20209;-74
2023/01/20 00:36:07;;;;;;;1.23;0.80;;;;;;;6.84;100.00;93521.88;5010886;28;20209;-73
2023/01/20 00:38:34;;;;;;;0.43;0.43;;;;;;;6.84;100.00;93531.84;5008019;28;20260;-73
2023/01/20 00:41:01;;;;;;;0.50;0.50;;;;;;;6.83;100.00;93500.69;5001197;28;20260;-74
2023/01/20 00:43:28;;;;;;;0.40;0.40;;;;;;;6.75;100.00;93494.28;4997830;28;20205;-74
2023/01/20 00:45:54;;;;;;;0.30;0.30;;;;;;;6.74;100.00;93484.63;5011315;28;20816;-73
2023/01/20 00:48:23;;;;;;;1.33;0.63;;;;;;;6.84;100.00;93484.19;4998186;28;20641;-73
2023/01/20 00:50:49;;;;;;;0.30;0.30;;;;;;;6.80;100.00;93491.38;5000109;28;20533;-73
2023/01/20 00:53:16;;;;;;;3.30;0.52;;;;;;;6.88;100.00;93495.09;5004810;28;20267;-73
2023/01/20 00:55:43;;;;;;;1.15;0.63;;;;;;;6.77;100.00;93490.13;5002185;28;20299;-73
2023/01/20 00:58:10;;;;;;;0.30;0.30;;;;;;;6.82;100.00;93499.13;4997618;28;20271;-74
2023/01/20 01:00:37;;;;;;;0.95;0.88;;;;;;;6.79;100.00;93497.88;4999740;28;20256;-74
2023/01/20 01:03:05;;;;;;;1.67;0.65;;;;;;;6.78;100.00;93496.31;4995153;28;20204;-74
2023/01/20 01:05:33;;;;;;;0.65;0.40;;;;;;;6.89;100.00;93502.84;4999063;28;20212;-74
2023/01/20 01:08:00;;;;;;;0.60;0.57;;;;;;;6.96;100.00;93492.34;5008701;28;20240;-72
2023/01/20 01:10:27;;;;;;;1.10;0.70;;;;;;;7.01;100.00;93494.78;5010050;28;20201;-73
2023/01/20 01:12:54;;;;;;;0.68;0.60;;;;;;;7.06;100.00;93501.88;4997571;28;20252;-73
2023/01/20 01:15:20;;;;;;;0.52;0.40;;;;;;;7.14;100.00;93501.78;5010503;28;20205;-73
2023/01/20 01:17:47;;;;;;;0.40;0.40;;;;;;;7.11;100.00;93505.13;4997431;28;20349;-73
2023/01/20 01:20:14;;;;;;;0.45;0.40;;;;;;;7.01;100.00;93513.63;4998019;28;20209;-73
2023/01/20 01:22:42;;;;;;;0.30;0.30;;;;;;;7.07;100.00;93516.91;5008451;28;20642;-74
2023/01/20 01:25:09;;;;;;;0.63;0.35;;;;;;;7.09;100.00;93512.78;5010224;28;20200;-73
2023/01/20 01:27:37;;;;;;;0.80;0.50;;;;;;;7.21;100.00;93519.31;4996779;28;20244;-73
2023/01/20 01:30:05;;;;;;;0.30;0.30;;;;;;;7.23;100.00;93511.69;5010054;28;20232;-73
2023/01/20 01:32:31;;;;;;;0.50;0.50;;;;;;;7.23;100.00;93517.06;4997398;28;20243;-74
2023/01/20 01:34:58;;;;;;;0.88;0.77;;;;;;;7.13;100.00;93519.06;4997101;28;20210;-74
2023/01/20 01:37:25;;;;;;;1.80;0.60;;;;;;;7.22;100.00;93520.88;5002972;28;20574;-74
2023/01/20 01:39:53;;;;;;;2.28;0.98;;;;;;;7.25;100.00;93520.19;5003788;28;20205;-74
2023/01/20 01:42:24;;;;;;;1.30;0.90;;;;;;;7.94;100.00;93508.56;5010214;28;20715;-78
2023/01/20 01:45:24;;;;;;;3.30;1.58;;;;;;;8.05;100.00;93515.91;4997057;28;20210;-77
2023/01/20 01:47:56;;;;;;;1.05;0.80;;;;;;;7.60;100.00;93532.16;4996702;28;20234;-75
2023/01/20 01:50:27;;;;;;;1.77;1.00;;;;;;;7.41;100.00;93529.22;4997765;28;20568;-76
2023/01/20 01:52:58;;;;;;;1.00;0.82;;;;;;;7.28;100.00;93541.88;5008795;28;20205;-76
2023/01/20 01:55:29;;;;;;;0.73;0.63;;;;;;;7.26;100.00;93535.25;4998387;28;20320;-76
2023/01/20 01:57:58;;;;;;;0.60;0.60;;;;;;;7.23;100.00;93527.84;5004478;28;20201;-76
2023/01/20 02:00:25;;;;;;;0.65;0.50;;;;;;;7.26;100.00;93524.47;4999290;28;20209;-76
2023/01/20 02:02:52;;;;;;;0.50;0.50;;;;;;;7.26;100.00;93527.16;5007125;28;20281;-76
2023/01/20 02:05:20;;;;;;;0.57;0.50;;;;;;;7.21;100.00;93530.09;4999631;28;20283;-76
2023/01/20 02:07:48;;;;;;;1.33;0.68;;;;;;;7.14;100.00;93526.00;5007106;28;20285;-76
2023/01/20 02:10:15;;;;;;;1.60;0.50;;;;;;;7.13;100.00;93512.88;4999257;28;20255;-76
2023/01/20 02:12:48;;;;;;;0.30;0.30;;;;;;;7.10;100.00;93503.59;4996654;28;20205;-77
2023/01/20 02:15:17;;;;;;;1.58;0.60;;;;;;;7.12;100.00;93495.16;5009436;28;20302;-75
2023/01/20 02:17:56;;;;;;;1.77;0.73;;;;;;;7.11;100.00;93488.97;5009760;28;20289;-76
2023/01/20 02:20:52;;;;;;;0.40;0.40;;;;;;;7.07;100.00;93496.16;4996511;28;20213;-75
2023/01/20 02:23:34;;;;;;;2.38;0.80;;;;;;;7.12;100.00;93493.25;4999901;28;20205;-77
2023/01/20 02:26:36;;;;;;;2.05;0.60;;;;;;;7.11;100.00;93494.38;4996368;28;20251;-76
2023/01/20 02:29:40;;;;;;;0.60;0.40;;;;;;;7.09;100.00;93491.25;4996511;28;20232;-76
2023/01/20 02:32:22;;;;;;;0.73;0.40;;;;;;;7.08;100.00;93484.28;4977745;28;20204;-76
2023/01/20 02:34:57;;;;;;;0.73;0.60;;;;;;;6.96;100.00;93486.16;4997819;28;20210;-76
2023/01/20 02:37:28;;;;;;;0.70;0.50;;;;;;;6.89;100.00;93481.31;4995642;28;20291;-77
2023/01/20 02:40:12;;;;;;;1.40;0.70;;;;;;;6.90;100.00;93474.81;4996297;28;20260;-77
2023/01/20 02:42:45;;;;;;;1.23;0.82;;;;;;;6.87;100.00;93480.84;5009476;28;20245;-75
2023/01/20 02:45:17;;;;;;;1.27;0.50;;;;;;;6.85;100.00;93469.63;4996027;28;20269;-77
2023/01/20 02:47:52;;;;;;;2.40;0.55;;;;;;;6.95;100.00;93463.84;5009177;28;20229;-76
2023/01/20 02:50:23;;;;;;;0.40;0.40;;;;;;;6.99;100.00;93453.94;4996644;28;20355;-76
2023/01/20 02:52:54;;;;;;;0.40;0.40;;;;;;;7.07;100.00;93450.41;5008288;28;20255;-76
2023/01/20 02:55:28;;;;;;;0.98;0.40;;;;;;;6.98;100.00;93455.06;4996633;28;20232;-77
2023/01/20 02:58:00;;;;;;;0.40;0.40;;;;;;;6.89;100.00;93443.63;5003253;28;20220;-76
2023/01/20 03:00:33;;;;;;;1.17;0.55;;;;;;;6.87;100.00;93451.25;4999298;28;20268;-76
2023/01/20 03:03:05;;;;;;;0.38;0.30;;;;;;;6.88;100.00;93450.13;4995699;28;20223;-77
2023/01/20 03:05:36;;;;;;;2.47;0.43;;;;;;;6.82;100.00;93438.00;4997275;28;20201;-77
2023/01/20 03:08:08;;;;;;;0.50;0.50;;;;;;;6.89;100.00;93454.38;5002387;28;20803;-76
2023/01/20 03:10:36;;;;;;;0.20;0.20;;;;;;;6.87;100.00;93451.25;5002604;28;20213;-76
2023/01/20 03:13:11;;;;;;;1.65;0.40;;;;;;;6.94;100.00;93451.50;5008031;28;20359;-77
2023/01/20 03:15:47;;;;;;;0.32;0.32;;;;;;;6.98;100.00;93457.75;4995246;28;20204;-76
2023/01/20 03:18:16;;;;;;;1.00;0.50;;;;;;;7.01;100.00;93459.78;5008604;28;20267;-76
2023/01/20 03:20:42;;;;;;;0.77;0.55;;;;;;;6.99;100.00;93456.66;4995493;28;20231;-76
2023/01/20 03:23:10;;;;;;;0.45;0.40;;;;;;;7.12;100.00;93463.63;4998495;28;20252;-75
2023/01/20 03:25:37;;;;;;;0.40;0.40;;;;;;;7.20;100.00;93458.50;5001193;28;20584;-76
2023/01/20 03:28:05;;;;;;;1.25;0.60;;;;;;;7.16;100.00;93454.88;4999181;28;21546;-75
2023/01/20 03:30:31;;;;;;;0.30;0.30;;;;;;;7.20;100.00;93453.91;4995323;28;20243;-74
2023/01/20 03:32:59;;;;;;;0.50;0.50;;;;;;;7.25;100.00;93466.34;5006797;28;21027;-76
2023/01/20 03:35:28;;;;;;;3.22;0.50;;;;;;;7.33;100.00;93460.06;5008354;28;20260;-75
2023/01/20 03:37:55;;;;;;;0.90;0.43;;;;;;;7.35;100.00;93466.72;5007873;28;20723;-75
2023/01/20 03:40:24;;;;;;;0.50;0.50;;;;;;;7.23;100.00;93460.53;4995118;28;20213;-75
2023/01/20 03:42:58;;;;;;;0.30;0.30;;;;;;;7.23;100.00;93464.00;4995528;28;20661;-75
2023/01/20 03:45:34;;;;;;;1.40;0.50;;;;;;;7.20;100.00;93469.25;4996234;28;20259;-75
2023/01/20 03:48:08;;;;;;;0.60;0.40;;;;;;;7.11;100.00;93450.50;5010978;28;20228;-75
2023/01/20 03:50:42;;;;;;;0.30;0.30;;;;;;;7.06;100.00;93453.41;5000727;28;20722;-75
2023/01/20 03:53:20;;;;;;;1.95;0.40;;;;;;;7.04;100.00;93432.22;5011654;28;20467;-75
2023/01/20 03:55:51;;;;;;;2.28;0.52;;;;;;;7.05;100.00;93414.16;5011054;28;20638;-75
2023/01/20 03:58:23;;;;;;;1.67;0.40;;;;;;;7.05;100.00;93414.94;5002672;28;20294;-75
2023/01/20 04:00:53;;;;;;;2.45;0.40;;;;;;;7.06;100.00;93405.75;5004867;28;20251;-75
2023/01/20 04:03:25;;;;;;;1.73;0.47;;;;;;;7.06;100.00;93411.13;5005085;28;20202;-76
2023/01/20 04:05:55;;;;;;;1.85;0.52;;;;;;;7.09;100.00;93397.00;5005915;28;20217;-74
2023/01/20 04:08:25;;;;;;;0.20;0.20;;;;;;;7.14;100.00;93402.16;5003384;28;20225;-75
2023/01/20 04:10:55;;;;;;;0.85;0.60;;;;;;;7.06;100.00;93394.97;5006755;28;20588;-75
2023/01/20 04:13:22;;;;;;;0.30;0.30;;;;;;;7.01;100.00;93392.50;5010994;28;20208;-75
2023/01/20 04:15:48;;;;;;;0.40;0.40;;;;;;;7.00;100.00;93390.91;4998386;28;20197;-76
2023/01/20 04:18:17;;;;;;;2.25;0.65;;;;;;;7.05;100.00;93390.72;5001930;28;20764;-75
2023/01/20 04:20:46;;;;;;;1.00;0.75;;;;;;;7.08;100.00;93387.34;5007999;28;20217;-76
2023/01/20 04:23:20;;;;;;;0.40;0.40;;;;;;;7.00;100.00;93376.69;5011022;28;20197;-74
2023/01/20 04:25:47;;;;;;;0.47;0.47;;;;;;;7.01;100.00;93373.66;4998057;28;20204;-74
2023/01/20 04:28:14;;;;;;;0.68;0.52;;;;;;;7.00;100.00;93366.69;4999386;28;20229;-74
2023/01/20 04:30:40;;;;;;;0.98;0.85;;;;;;;6.98;100.00;93363.53;5009571;28;20267;-75
2023/01/20 04:33:07;;;;;;;1.13;0.57;;;;;;;7.00;100.00;93358.63;5011275;28;20209;-75
2023/01/20 04:35:34;;;;;;;0.95;0.52;;;;;;;7.00;100.00;93374.78;5006276;28;20205;-75
2023/01/20 04:38:01;;;;;;;0.50;0.50;;;;;;;6.97;100.00;93372.75;5002963;28;20737;-75
2023/01/20 04:40:29;;;;;;;0.98;0.70;;;;;;;6.96;100.00;93373.88;4998240;28;20266;-75
2023/01/20 04:42:56;;;;;;;1.85;1.00;;;;;;;6.98;100.00;93371.63;4999435;28;20269;-74
2023/01/20 04:45:23;;;;;;;1.10;1.00;;;;;;;6.98;100.00;93382.38;5004112;28;20206;-75
2023/01/20 04:47:49;;;;;;;2.03;1.40;;;;;;;6.94;100.00;93381.50;5002805;28;20304;-74
2023/01/20 04:50:17;;;;;;;2.45;1.45;;;;;;;6.95;100.00;93375.00;4998233;28;20287;-73
2023/01/20 04:52:44;;;;;;;1.20;1.10;;;;;;;7.00;100.00;93382.84;5005131;28;20263;-74
2023/01/20 04:55:12;;;;;;;1.90;1.23;;;;;;;7.00;100.00;93380.16;5006176;28;20730;-74
2023/01/20 04:57:40;;;;;;;4.80;1.50;;;;;;;6.99;100.00;93383.19;5007617;28;20252;-74
2023/01/20 05:00:08;;;;;;;2.72;1.73;;;;;;;7.04;100.00;93388.34;5003072;28;20267;-74
2023/01/20 05:02:35;;;;;;;5.15;1.90;;;;;;;7.07;100.00;93399.25;5004008;28;20219;-74
2023/01/20 05:05:01;;;;;;;2.53;1.80;;;;;;;7.17;100.00;93410.69;5007876;28;20247;-74
2023/01/20 05:07:28;;;;;;;2.78;1.90;;;;;;;7.11;100.00;93418.97;5003791;28;20221;-75
2023/01/20 05:09:55;;;;;;;4.85;2.05;;;;;;;7.08;100.00;93419.66;4999557;28;20279;-76
2023/01/20 05:12:22;;;;;;;2.47;1.55;;;;;;;7.16;100.00;93403.72;5004409;28;20259;-77
2023/01/20 05:14:50;;;;;;;3.78;1.45;;;;;;;7.10;100.00;93411.25;5006224;28;20217;-76
2023/01/20 05:17:16;;;;;;;4.50;1.17;;;;;;;7.12;100.00;93415.16;5007902;28;20714;-77
2023/01/20 05:19:43;;;;;;;1.58;1.20;;;;;;;7.19;100.00;93413.84;4998307;28;20194;-76
2023/01/20 05:22:10;;;;;;;3.80;1.52;;;;;;;7.20;100.00;93408.13;5004500;28;20202;-76
2023/01/20 05:24:37;;;;;;;3.92;1.67;;;;;;;7.20;100.00;93412.72;5003790;28;20255;-76
2023/01/20 05:27:04;;;;;;;2.17;1.80;;;;;;;7.20;100.00;93410.03;5007124;28;20209;-76
2023/01/20 05:29:30;;;;;;;1.92;1.55;;;;;;;7.25;100.00;93417.84;5006750;28;20229;-76
2023/01/20 05:31:58;;;;;;;2.47;1.30;;;;;;;7.20;100.00;93426.19;5008071;28;20251;-75
2023/01/20 05:34:25;;;;;;;1.40;1.30;;;;;;;7.34;100.00;93437.41;5000373;28;20205;-75
2023/01/20 05:36:53;;;;;;;5.32;1.80;;;;;;;7.19;100.00;93440.75;4993859;28;20201;-76
2023/01/20 05:39:20;;;;;;;2.45;1.63;;;;;;;7.28;100.00;93436.03;4999824;28;20208;-75
2023/01/20 05:41:47;;;;;;;7.03;2.45;;;;;;;7.31;100.00;93438.06;5003527;28;20652;-75
2023/01/20 05:44:15;;;;;;;4.30;2.40;;;;;;;7.48;100.00;93440.56;4999990;28;20668;-75
2023/01/20 05:46:41;;;;;;;7.40;3.13;;;;;;;7.52;100.00;93433.34;4996979;28;20205;-75
2023/01/20 05:49:11;;;;;;;4.85;2.30;;;;;;;7.56;100.00;93433.47;4999758;28;20284;-75
2023/01/20 05:51:38;;;;;;;8.55;3.97;;;;;;;7.61;100.00;93428.66;5004289;28;20214;-75
2023/01/20 05:54:05;;;;;;;6.40;2.78;;;;;;;7.38;100.00;93416.75;5002470;28;20212;-75
2023/01/20 05:56:32;;;;;;;5.57;2.40;;;;;;;7.29;100.00;93408.00;5006375;28;20234;-76
2023/01/20 05:58:59;;;;;;;6.25;2.80;;;;;;;7.26;100.00;93398.66;4999109;28;20209;-77
2023/01/20 06:01:25;;;;;;;2.65;1.92;;;;;;;7.09;100.00;93418.53;5007488;28;20215;-76
2023/01/20 06:03:52;;;;;;;5.20;2.45;;;;;;;7.10;100.00;93417.44;4998980;28;20295;-75
2023/01/20 06:06:20;;;;;;;3.45;2.22;;;;;;;7.13;100.00;93415.94;5003176;28;20260;-75
2023/01/20 06:08:48;;;;;;;3.13;2.22;;;;;;;7.08;100.00;93422.34;5000930;28;20623;-75
2023/01/20 06:11:16;;;;;;;5.38;2.88;;;;;;;7.13;100.00;93429.41;4996653;28;20205;-76
2023/01/20 06:13:43;;;;;;;5.22;2.65;;;;;;;7.19;100.00;93438.06;5009347;28;20199;-76
2023/01/20 06:16:10;;;;;;;3.88;2.38;;;;;;;7.21;100.00;93425.06;5009826;28;20279;-76
2023/01/20 06:18:37;;;;;;;11.50;2.58;;;;;;;7.27;100.00;93421.00;4996556;28;20828;-76
2023/01/20 06:21:03;;;;;;;3.97;2.80;;;;;;;7.34;100.00;93422.03;5009127;28;20238;-76
2023/01/20 06:23:32;;;;;;;6.45;2.85;;;;;;;7.42;100.00;93436.50;5009360;28;20201;-75
2023/01/20 06:26:00;;;;;;;10.52;2.80;;;;;;;7.55;100.00;93454.25;5002971;28;20838;-75
2023/01/20 06:28:27;;;;;;;4.18;2.42;;;;;;;7.52;100.00;93448.75;5002602;28;20204;-75
2023/01/20 06:30:59;;;;;;;5.15;3.10;;;;;;;7.34;100.00;93440.09;4996831;28;20334;-74
2023/01/20 06:33:26;;;;;;;2.45;1.75;;;;;;;7.15;100.00;93411.00;4995530;28;20256;-74
2023/01/20 06:35:54;;;;;;;2.50;1.45;;;;;;;7.06;100.00;93404.97;5008617;28;20205;-74
2023/01/20 06:38:21;;;;;;;5.28;1.92;;;;;;;7.02;100.00;93410.22;5008806;28;20215;-74
2023/01/20 06:40:49;;;;;;;4.28;2.58;;;;;;;6.95;100.00;93399.25;5009118;28;20209;-74
2023/01/20 06:43:15;;;;;;;5.15;2.25;;;;;;;6.91;100.00;93376.78;4995879;28;20885;-75
2023/01/20 06:45:42;;;;;;;1.90;1.50;;;;;;;6.89;100.00;93389.78;5009197;28;20726;-75
2023/01/20 06:48:09;;;;;;;5.93;3.22;;;;;;;6.89;100.00;93397.06;4995963;28;20244;-74
2023/01/20 06:50:36;;;;;;;9.18;4.88;;;;;;;6.97;100.00;93402.34;5008619;28;20299;-74
2023/01/20 06:53:02;;;;;;;5.50;4.05;;;;;;;7.04;100.00;93394.53;5006907;28;20263;-75
2023/01/20 06:55:29;;;;;;;7.03;2.92;;;;;;;7.11;100.00;93392.03;4997805;28;20637;-75
2023/01/20 06:57:57;;;;;;;3.92;2.35;;;;;;;7.15;100.00;93400.25;5008864;28;20286;-73
2023/01/20 07:00:24;;;;;;;5.13;2.72;;;;;;;7.06;100.00;93403.06;5008982;28;20664;-75
2023/01/20 07:02:51;;;;;;;3.20;2.42;;;;;;;7.03;100.00;93401.03;5006017;28;20205;-74
2023/01/20 07:05:18;;;;;;;2.88;1.70;;;;;;;7.06;100.00;93389.59;4998823;28;20247;-74
2023/01/20 07:07:44;;;;;;;9.75;2.97;;;;;;;7.03;100.00;93392.16;4995733;28;20208;-76
2023/01/20 07:10:12;;;;;;;4.65;1.83;;;;;;;6.94;100.00;93391.50;4999378;28;20247;-74
2023/01/20 07:12:39;;;;;;;5.68;2.72;;;;;;;6.95;100.00;93393.84;5002306;28;20209;-74
2023/01/20 07:15:08;;;;;;;4.28;3.13;;;;;;;7.00;100.00;93395.53;4999057;28;20205;-76
2023/01/20 07:17:35;;;;;;;4.47;1.80;;;;;;;6.92;100.00;93393.72;5008553;28;20209;-75
2023/01/20 07:20:02;;;;;;;6.95;2.80;;;;;;;6.99;100.00;93393.94;5008139;28;20259;-75
2023/01/20 07:22:28;;;;;;;3.22;2.17;;;;;;;7.08;100.00;93390.03;4994937;28;20208;-74
2023/01/20 07:24:55;;;;;;;2.03;1.30;;;;;;;7.08;100.00;93389.25;4998189;28;20209;-74
2023/01/20 07:27:22;;;;;;;3.03;1.92;;;;;;;7.02;100.00;93394.06;5001794;28;20210;-74
2023/01/20 07:29:48;;;;;;;3.47;2.17;;;;;;;7.00;100.00;93401.69;4999169;28;20287;-75
2023/01/20 07:32:17;;;;;;;3.67;2.20;;;;;;;7.04;100.00;93407.19;5008492;28;20610;-75
2023/01/20 07:34:43;;;;;;;2.97;2.20;;;;;;;7.01;100.00;93397.09;5007943;28;20255;-76
2023/01/20 07:37:10;;;;;;;5.57;2.97;;;;;;;7.01;100.00;93392.50;4995056;28;20197;-75
2023/01/20 07:39:37;;;;;;;4.53;2.97;;;;;;;6.99;100.00;93400.13;5008661;28;20618;-75
2023/01/20 07:42:04;;;;;;;6.13;3.58;;;;;;;7.03;100.00;93400.25;5004614;28;20569;-75
2023/01/20 07:44:32;;;;;;;9.40;2.42;;;;;;;7.09;100.00;93391.63;4999929;28;20263;-74
2023/01/20 07:46:58;;;;;;;3.78;2.72;;;;;;;7.14;100.00;93391.38;5008482;28;20731;-76
2023/01/20 07:49:28;;;;;;;3.30;2.00;;;;;;;7.18;100.00;93379.94;4996969;28;20225;-75
2023/01/20 07:51:54;;;;;;;3.30;2.33;;;;;;;7.12;100.00;93393.63;5007771;28;20672;-75
2023/01/20 07:54:21;;;;;;;3.72;1.92;;;;;;;7.14;100.00;93386.00;5008334;28;20247;-77
2023/01/20 07:56:48;;;;;;;1.65;1.40;;;;;;;7.21;100.00;93385.44;5005139;28;20281;-76
2023/01/20 07:59:15;;;;;;;3.13;1.77;;;;;;;7.15;100.00;93365.25;4988678;28;20213;-75
2023/01/20 08:01:42;;;;;;;3.15;1.35;;;;;;;7.11;100.00;93375.88;4988793;28;20197;-75
2023/01/20 08:04:09;;;;;;;3.67;1.98;;;;;;;7.10;100.00;93374.34;5001784;28;20267;-75
2023/01/20 08:06:37;;;;;;;4.00;1.45;;;;;;;7.05;100.00;93381.84;4995195;28;20205;-75
2023/01/20 08:09:04;;;;;;;2.35;1.30;;;;;;;7.06;100.00;93373.44;4995279;28;20216;-75
2023/01/20 08:11:32;;;;;;;3.70;1.05;;;;;;;7.06;100.00;93349.22;5001467;28;20610;-75
2023/01/20 08:13:58;;;;;;;2.42;1.52;;;;;;;7.01;100.00;93322.50;5001411;28;20650;-75
2023/01/20 08:16:25;;;;;;;1.85;1.25;;;;;;;6.98;100.00;93323.16;4995257;28;20267;-74
2023/01/20 08:18:53;;;;;;;1.42;1.25;;;;;;;7.04;100.00;93327.22;5007150;28;20258;-76
2023/01/20 08:21:22;;;;;;;1.63;0.82;;;;;;;7.13;100.00;93333.25;4988975;28;20276;-75
2023/01/20 08:23:51;;;;;;;2.38;1.05;;;;;;;7.18;100.00;93336.88;5001355;28;20201;-76
2023/01/20 08:26:19;;;;;;;2.38;1.25;;;;;;;7.23;100.00;93348.19;4996831;28;20200;-76
2023/01/20 08:28:46;;;;;;;1.90;1.08;;;;;;;7.23;100.00;93352.81;5008182;28;20670;-77
2023/01/20 08:31:15;;;;;;;2.22;1.13;;;;;;;7.22;100.00;93346.63;5000031;28;20287;-76
2023/01/20 08:33:43;;;;;;;0.75;0.70;;;;;;;7.14;100.00;93334.84;5005468;28;20214;-76
2023/01/20 08:36:12;;;;;;;1.35;0.90;;;;;;;7.19;100.00;93349.19;5001506;28;20212;-77
2023/01/20 08:38:39;;;;;;;2.45;1.15;;;;;;;7.22;100.00;93332.38;4999157;28;20248;-78
2023/01/20 08:41:12;;;;;;;1.70;1.17;;;;;;;7.19;100.00;93312.28;5004279;28;20205;-77
2023/01/20 08:43:39;;;;;;;3.25;1.15;;;;;;;7.22;100.00;93305.44;5007129;28;20201;-77
2023/01/20 08:46:08;;;;;;;2.22;1.20;;;;;;;7.16;100.00;93299.50;4992063;28;20206;-77
2023/01/20 08:48:36;;;;;;;3.67;1.90;;;;;;;7.10;100.00;93304.34;5005573;28;20256;-77
2023/01/20 08:51:04;;;;;;;7.72;2.90;;;;;;;7.20;100.00;93291.53;5004213;28;20294;-77
2023/01/20 08:53:31;;;;;;;7.25;2.30;;;;;;;7.33;100.00;93295.78;5005907;28;20209;-78
2023/01/20 08:55:59;;;;;;;5.95;3.05;;;;;;;7.32;100.00;93286.13;5004313;28;20987;-77
2023/01/20 08:58:28;;;;;;;4.03;2.50;;;;;;;7.43;100.00;93284.53;5002115;28;20201;-78
2023/01/20 09:00:55;;;;;;;6.35;2.88;;;;;;;7.54;100.00;93284.81;4998324;28;20209;-77
2023/01/20 09:03:23;;;;;;;6.63;2.97;;;;;;;7.68;100.00;93296.00;4998901;28;20209;-77
2023/01/20 09:05:50;;;;;;;4.88;2.60;;;;;;;7.74;100.00;93273.09;4997912;28;20257;-77
2023/01/20 09:08:17;;;;;;;5.07;2.42;;;;;;;7.87;100.00;93271.91;5010755;28;20212;-79
2023/01/20 09:10:44;;;;;;;3.92;2.28;;;;;;;7.97;100.00;93259.84;4997601;28;20222;-77
2023/01/20 09:13:11;;;;;;;3.47;2.13;;;;;;;7.97;100.00;93293.00;5003399;28;20811;-77
2023/01/20 09:15:39;;;;;;;4.05;2.20;;;;;;;8.11;100.00;93281.81;5004484;28;20602;-76
2023/01/20 09:18:06;;;;;;;2.88;1.15;;;;;;;8.19;100.00;93294.38;4999747;28;20209;-76
2023/01/20 09:20:32;;;;;;;5.95;1.58;;;;;;;8.21;100.00;93294.78;4997820;28;20205;-77
2023/01/20 09:23:01;;;;;;;1.20;0.65;;;;;;;8.25;100.00;93297.59;5002903;28;20205;-77
2023/01/20 09:25:28;;;;;;;0.80;0.80;;;;;;;8.29;100.00;93293.84;5004700;28;20288;-78
2023/01/20 09:27:55;;;;;;;4.07;1.35;;;;;;;8.29;100.00;93299.25;4999818;28;20672;-77
2023/01/20 09:30:22;;;;;;;2.95;0.93;;;;;;;8.32;100.00;93298.59;5010856;28;20712;-77
2023/01/20 09:32:52;;;;;;;1.85;1.30;;;;;;;8.34;100.00;93293.63;5011229;28;20205;-76
2023/01/20 09:35:19;;;;;;;2.33;1.35;;;;;;;8.53;100.00;93295.66;5008105;28;20201;-75
2023/01/20 09:46:26;;;;;;;1.88;1.25;;;;;;;8.77;96.53;93275.81;5003249;28;20267;-75
2023/01/20 09:54:51;;;;;;;0.68;0.60;;;;;;;9.02;92.35;93266.38;4997330;28;20891;-76
2023/01/20 09:57:21;;;;;;;2.53;0.63;;;;;;;9.03;93.49;93257.13;5006562;28;20255;-77
2023/01/20 09:59:54;;;;;;;1.77;1.15;;;;;;;9.30;92.95;93241.13;4997183;28;20552;-76
2023/01/20 10:02:27;;;;;;;1.48;1.00;;;;;;;9.87;92.35;93235.75;4998741;28;20201;-77
2023/01/20 10:05:00;;;;;;;1.65;0.75;;;;;;;10.10;89.24;93238.53;5010140;28;20243;-77
2023/01/20 10:07:34;;;;;;;2.35;1.20;;;;;;;10.01;89.59;93250.69;4997117;28;20212;-77
2023/01/20 10:10:14;;;;;;;2.78;1.20;;;;;;;9.68;91.75;93238.47;5001507;28;20225;-77
2023/01/20 10:12:45;;;;;;;5.47;1.10;;;;;;;9.84;91.18;93233.75;5007312;28;20275;-77
2023/01/20 10:15:18;;;;;;;1.38;0.90;;;;;;;9.90;88.91;93213.41;5010000;28;20296;-76
2023/01/20 10:17:51;;;;;;;1.42;1.10;;;;;;;10.13;86.91;93189.09;5010324;28;20267;-77
2023/01/20 10:20:27;;;;;;;1.48;0.70;;;;;;;10.14;86.58;93184.47;5010330;28;20205;-76
2023/01/20 10:23:00;;;;;;;1.75;0.90;;;;;;;10.29;88.49;93194.41;4998084;28;20272;-77
2023/01/20 10:25:30;;;;;;;1.08;0.60;;;;;;;10.42;85.51;93190.38;5008319;28;20661;-77
2023/01/20 10:28:03;;;;;;;0.52;0.45;;;;;;;10.46;84.86;93191.25;4999429;28;20287;-77
2023/01/20 10:30:34;;;;;;;1.92;0.73;;;;;;;10.43;84.11;93197.38;5007499;28;20270;-77
2023/01/20 10:33:08;;;;;;;0.63;0.63;;;;;;;10.58;82.33;93193.75;4990884;28;20206;-78
2023/01/20 10:35:39;;;;;;;1.85;0.93;;;;;;;11.10;85.51;93200.34;5004531;28;20411;-79
2023/01/20 10:38:08;;;;;;;2.67;1.00;;;;;;;11.36;82.90;93194.91;5002316;28;20205;-78
2023/01/20 10:40:47;;;;;;;2.00;1.33;;;;;;;11.03;84.98;93197.53;4996445;28;20205;-78
2023/01/20 10:43:16;;;;;;;1.35;1.05;;;;;;;10.75;86.00;93194.41;5007732;28;20208;-79
2023/01/20 10:46:01;;;;;;;2.38;1.20;;;;;;;10.59;85.52;93189.91;4998157;28;20259;-78
2023/01/20 10:48:45;;;;;;;2.72;0.80;;;;;;;10.42;85.22;93190.38;4996616;28;20208;-79
2023/01/20 10:51:21;;;;;;;4.28;2.00;;;;;;;10.17;86.20;93199.97;5009487;28;20239;-78
2023/01/20 10:53:58;;;;;;;5.68;1.58;;;;;;;10.00;87.21;93198.50;5004248;28;20197;-77
2023/01/20 10:56:41;;;;;;;4.10;1.02;;;;;;;9.98;88.20;93204.28;5008445;28;20738;-78
2023/01/20 10:59:13;;;;;;;1.80;0.85;;;;;;;9.69;88.34;93213.00;4993191;28;20575;-78
2023/01/20 11:01:41;;;;;;;3.42;1.48;;;;;;;9.62;90.27;93208.22;4995078;28;20204;-77
2023/01/20 11:04:18;;;;;;;2.55;1.30;;;;;;;9.57;92.15;93199.59;4995671;28;20256;-78
2023/01/20 11:06:48;;;;;;;3.20;1.70;;;;;;;9.51;92.60;93190.25;4988701;28;20209;-77
2023/01/20 11:09:24;;;;;;;1.40;1.08;;;;;;;9.41;94.30;93194.31;5003576;28;20213;-77
2023/01/20 11:11:52;;;;;;;4.07;1.95;;;;;;;9.35;95.73;93186.81;5008026;28;20232;-77
2023/01/20 11:14:19;;;;;;;3.50;1.88;;;;;;;9.21;97.50;93198.91;4991780;28;20286;-76
2023/01/20 11:16:50;;;;;;;2.80;1.90;;;;;;;9.12;99.10;93209.13;4988770;28;20276;-75
2023/01/20 11:19:17;;;;;;;3.00;1.40;;;;;;;8.98;100.00;93213.44;5001258;28;20263;-74
2023/01/20 11:21:43;;;;;;;5.45;1.45;;;;;;;8.92;100.00;93212.91;4999461;28;20263;-74
2023/01/20 11:24:35;;;;;;;3.30;1.40;;;;;;;8.82;100.00;93205.34;5007932;28;20216;-74
2023/01/20 11:27:05;;;;;;;2.30;1.40;;;;;;;8.56;100.00;93208.59;5007297;28;20282;-75
2023/01/20 11:29:40;;;;;;;5.97;3.60;;;;;;;8.39;100.00;93208.94;4996853;28;20211;-76
2023/01/20 11:32:33;;;;;;;8.23;4.00;;;;;;;8.26;100.00;93208.22;4994875;28;20228;-77
2023/01/20 11:35:01;;;;;;;11.60;4.50;;;;;;;8.19;100.00;93208.06;4995429;28;20205;-77
2023/01/20 11:37:37;;;;;;;6.88;3.38;;;;;;;8.07;100.00;93200.03;4989216;28;20276;-77
2023/01/20 11:40:19;;;;;;;2.97;2.40;;;;;;;8.02;100.00;93192.22;4990036;28;20201;-78
2023/01/20 11:42:47;;;;;;;1.55;1.15;;;;;;;7.93;100.00;93194.25;4998196;28;20296;-78
2023/01/20 11:45:27;;;;;;;3.83;2.17;;;;;;;7.91;100.00;93201.94;5001659;28;20271;-76
2023/01/20 11:48:17;;;;;;;1.90;1.73;;;;;;;7.85;100.00;93209.47;5000548;28;20200;-76
2023/01/20 11:50:48;;;;;;;5.15;2.70;;;;;;;7.79;100.00;93217.03;4997936;28;20241;-76
2023/01/20 11:53:23;;;;;;;4.20;2.05;;;;;;;7.72;100.00;93206.06;5004057;28;20233;-76
2023/01/20 11:55:54;;;;;;;4.82;2.22;;;;;;;7.68;100.00;93213.25;4999821;28;20236;-76
2023/01/20 11:58:23;;;;;;;2.08;1.40;;;;;;;7.54;100.00;93214.78;4997572;28;20242;-77
2023/01/20 12:00:52;;;;;;;1.90;1.02;;;;;;;7.41;99.18;93211.34;5001034;28;20209;-76